Nearby METAR Reports

 

KSJC - San Jose, California, USA
Distance from station: NO 14km
Uppdaterad: 2022-08-16 15:53
Klart
Klart
 Vind från calm
Vind: Vindstilla
Temperatur: 17°C
Daggpunkt: 14°C
Luftfuktighet: 83%
Barometer: 1009.8 hPa
Clouds: Klart
Visibility: 13 km
2022/08/16 13:53 KSJC 161353Z 00000KT 8SM CLR 17/14 A2982 RMK AO2 SLP097 T01720139
KNUQ - Moffett Nas/Mtn, California, USA
Distance from station: N 14km
Uppdaterad: 2022-08-16 15:55
Klart
Klart
 Vind från calm
Vind: Vindstilla
Temperatur: 16°C
Daggpunkt: 13°C
Luftfuktighet: 83%
Barometer: 1009.8 hPa
Clouds: Klart
Visibility: 13 km
2022/08/16 13:55 KNUQ 161355Z AUTO 00000KT 8SM CLR 16/13 A2982 RMK AO2
 
KPAO - Palo Alto, California, USA
Distance from station: NNV 23km
Uppdaterad: 2022-08-16 15:47
Klart
Klart
 Vind från calm
Vind: Vindstilla
Temperatur: 13°C
Daggpunkt: 12°C
Luftfuktighet: 94%
Barometer: 1009.8 hPa
Clouds: Klart
Visibility: 16 km
2022/08/16 13:47 KPAO 161347Z 00000KT 10SM SKC 13/12 A2982 HZ
KRHV - San Jose/Reid, California, USA
Distance from station: ONO 19km
Uppdaterad: 2022-08-16 06:50
NOT Current
Klart
Klart
 Vind från calm
Vind: Vindstilla
Temperatur: 23°C
Daggpunkt: 13°C
Luftfuktighet: 53%
Barometer: 1010.2 hPa
Clouds: Klart
Visibility: 16 km
2022/08/16 04:50 KRHV 160450Z 00000KT 10SM SKC 23/13 A2983 RMK LAST
 
KOAK - Oakland, California, USA
Distance from station: NNV 50km
Uppdaterad: 2022-08-16 15:53
Few Clouds
Few Clouds
 Vind från N
Vind: N 6 km/h
Temperatur: 13°C
Daggpunkt: 11°C
Luftfuktighet: 88%
Barometer: 1009.8 hPa
Clouds: Few Clouds
Visibility: 14 km
Cloud details: Few Clouds 244 m
2022/08/16 13:53 KOAK 161353Z 36003KT 9SM FEW008 13/11 A2982 RMK AO2 SLP097 T01280111
KSQL - San Carlos Airpo, California, USA
Distance from station: NV 34km
Uppdaterad: 2022-08-16 15:55
Klart
Klart
 Vind från calm
Vind: Vindstilla
Temperatur: 15°C
Daggpunkt: 12°C
Luftfuktighet: 82%
Barometer: 1010.2 hPa
Clouds: Klart
Visibility: 16 km
2022/08/16 13:55 KSQL 161355Z AUTO 00000KT 10SM CLR 15/12 A2983 RMK AO2
 
KSFO - San Francisco, California, USA
Distance from station: NV 49km
Uppdaterad: 2022-08-16 15:56
Few Clouds
Few Clouds
 Vind från VNV
Vind: VNV 11 km/h
Temperatur: 14°C
Daggpunkt: 12°C
Luftfuktighet: 88%
Barometer: 1009.8 hPa
Clouds: Few Clouds
Visibility: 16 km
Cloud details: Few Clouds 183 m
2022/08/16 13:56 KSFO 161356Z 30006KT 10SM FEW006 14/12 A2982 RMK AO2 SLP097 T01440117
KE16 - San Martin, California, USA
Distance from station: OSO 43km
Uppdaterad: 2022-08-16 15:55
Klart
Klart
 Vind från calm
Vind: Vindstilla
Temperatur: 13°C
Daggpunkt: 10°C
Luftfuktighet: 82%
Barometer: 1011.2 hPa
Clouds: Klart
Visibility: 13 km
2022/08/16 13:55 KE16 161355Z AUTO 00000KT 8SM CLR 13/10 A2986 RMK AO2
 
KWVI - Watsonville, California, USA
Distance from station: SSO 44km
Uppdaterad: 2022-08-16 15:53
Fog, Genommulet
Fog, Genommulet
 Vind från calm
Vind: Vindstilla
Temperatur: 10°C
Daggpunkt: 10°C
Luftfuktighet: 100%
Barometer: 1010.8 hPa
Summering: Fog
Clouds: Genommulet
Visibility: 0.4 km
Cloud details: Genommulet 61 m
2022/08/16 13:53 KWVI 161353Z AUTO 00000KT M1/4SM FG VV002 10/10 A2985 RMK AO2 SLP107 T01000100
KHAF - Half Moon Bay, California, USA
Distance from station: VNV 50km
Uppdaterad: 2022-08-16 15:55
Fog, Genommulet
Fog, Genommulet
 Vind från SO
Vind: SO 13 km/h
Temperatur: 12°C
Daggpunkt: 12°C
Luftfuktighet: 100%
Barometer: 1010.5 hPa
Summering: Fog
Clouds: Genommulet
Visibility: 0.4 km
Cloud details: Genommulet 61 m
2022/08/16 13:55 KHAF 161355Z AUTO 14007KT 1/4SM FG OVC002 12/12 A2984 RMK AO2
 
KHWD - Hayward, California, USA
Distance from station: N 44km
Uppdaterad: 2022-08-16 15:54
Klart
Klart
 Vind från calm
Vind: Vindstilla
Temperatur: 16°C
Daggpunkt: 12°C
Luftfuktighet: 77%
Barometer: 1009.8 hPa
Clouds: Klart
Visibility: 16 km
2022/08/16 13:54 KHWD 161354Z 00000KT 10SM CLR 16/12 A2982 RMK AO2 SLP105 T01560117
KLVK - Livermore, California, USA
Distance from station: NNO 51km
Uppdaterad: 2022-08-16 15:53
Klart
Klart
 Vind från ONO
Vind: ONO 6 km/h
Temperatur: 17°C
Daggpunkt: 9°C
Luftfuktighet: 59%
Barometer: 1009.5 hPa
Clouds: Klart
Visibility: 16 km
2022/08/16 13:53 KLVK 161353Z 07003KT 10SM CLR 17/09 A2981 RMK AO2 SLP090 T01720094